createdAt,value
2019-05-18T00:01:31.582Z,14.80
2019-05-18T00:04:00.954Z,14.80
2019-05-18T00:06:31.724Z,14.80
2019-05-18T00:09:01.075Z,14.80
2019-05-18T00:11:32.474Z,14.80
2019-05-18T00:14:01.816Z,14.70
2019-05-18T00:16:31.196Z,14.70
2019-05-18T00:19:00.598Z,14.60
2019-05-18T00:21:29.960Z,14.50
2019-05-18T00:23:59.420Z,14.40
2019-05-18T00:26:28.773Z,14.30
2019-05-18T00:28:58.317Z,14.30
2019-05-18T00:31:27.677Z,14.30
2019-05-18T00:33:57.100Z,14.30
2019-05-18T00:36:27.021Z,14.30
2019-05-18T00:38:56.440Z,14.40
2019-05-18T00:41:25.862Z,14.40
2019-05-18T00:43:56.504Z,14.40
2019-05-18T00:46:25.930Z,14.30
2019-05-18T00:48:55.343Z,14.30
2019-05-18T00:51:24.758Z,14.30
2019-05-18T00:53:55.170Z,14.30
2019-05-18T00:56:24.608Z,14.20
2019-05-18T00:58:54.137Z,14.30
2019-05-18T01:01:23.549Z,14.20
2019-05-18T01:03:52.957Z,14.30
2019-05-18T01:06:22.315Z,14.30
2019-05-18T01:08:51.767Z,14.30
2019-05-18T01:11:21.125Z,14.30
2019-05-18T01:13:50.576Z,14.20
2019-05-18T01:16:19.948Z,14.20
2019-05-18T01:18:49.372Z,14.30
2019-05-18T01:21:18.804Z,14.20
2019-05-18T01:23:48.559Z,14.20
2019-05-18T01:26:17.975Z,14.20
2019-05-18T01:28:47.330Z,14.30
2019-05-18T01:31:16.750Z,14.20
2019-05-18T01:33:46.158Z,14.10
2019-05-18T01:36:16.687Z,14.10
2019-05-18T01:38:46.114Z,14.10
2019-05-18T01:41:15.524Z,14.00
2019-05-18T01:43:44.896Z,14.00
2019-05-18T01:46:14.332Z,13.90
2019-05-18T01:48:43.705Z,13.90
2019-05-18T01:51:13.141Z,13.90
2019-05-18T01:53:42.497Z,13.90
2019-05-18T01:56:11.917Z,13.80
2019-05-18T01:58:41.296Z,13.80
2019-05-18T02:01:10.704Z,13.80
2019-05-18T02:03:40.092Z,13.80
2019-05-18T02:06:09.514Z,13.80
2019-05-18T02:08:38.903Z,13.70
2019-05-18T02:11:09.246Z,13.70
2019-05-18T02:13:38.630Z,13.60
2019-05-18T02:16:07.979Z,13.50
2019-05-18T02:18:37.349Z,13.50
2019-05-18T02:21:06.700Z,13.40
2019-05-18T02:23:36.122Z,13.40
2019-05-18T02:26:05.471Z,13.30
2019-05-18T02:28:34.854Z,13.30
2019-05-18T02:31:04.180Z,13.20
2019-05-18T02:33:33.588Z,13.10
2019-05-18T02:36:04.236Z,13.10
2019-05-18T02:38:33.633Z,13.00
2019-05-18T02:41:02.980Z,13.00
2019-05-18T02:43:32.746Z,13.10
2019-05-18T02:46:02.174Z,13.00
2019-05-18T02:48:47.759Z,13.00
2019-05-18T02:51:02.558Z,13.00
2019-05-18T02:53:31.881Z,13.00
2019-05-18T02:56:01.290Z,13.00
2019-05-18T02:58:30.632Z,13.00
2019-05-18T03:01:00.032Z,13.00
2019-05-18T03:03:29.436Z,13.00
2019-05-18T03:05:58.767Z,13.00
2019-05-18T03:08:28.184Z,13.00
2019-05-18T03:10:57.610Z,13.00
2019-05-18T03:13:27.002Z,13.00
2019-05-18T03:15:56.329Z,13.00
2019-05-18T03:18:25.733Z,13.00
2019-05-18T03:20:55.107Z,13.10
2019-05-18T03:23:24.520Z,13.10
2019-05-18T03:25:53.915Z,13.10
2019-05-18T03:28:23.290Z,13.20
2019-05-18T03:30:52.673Z,13.30
2019-05-18T03:33:28.534Z,13.40
2019-05-18T03:35:53.045Z,13.40
2019-05-18T03:38:22.535Z,13.50
2019-05-18T03:40:51.879Z,13.50
2019-05-18T03:43:21.329Z,13.50
2019-05-18T03:45:50.753Z,13.60
2019-05-18T03:48:20.206Z,13.60
2019-05-18T03:50:49.581Z,13.60
2019-05-18T03:53:18.984Z,13.60
2019-05-18T03:55:48.375Z,13.70
2019-05-18T03:58:17.705Z,13.70
2019-05-18T04:00:47.120Z,13.70
2019-05-18T04:03:16.460Z,13.80
2019-05-18T04:05:45.863Z,13.70
2019-05-18T04:08:15.188Z,13.80
2019-05-18T04:10:44.590Z,13.70
2019-05-18T04:13:13.959Z,13.60
2019-05-18T04:15:44.407Z,13.60
2019-05-18T04:18:13.776Z,13.60
2019-05-18T04:20:43.192Z,13.50
2019-05-18T04:23:12.551Z,13.50
2019-05-18T04:25:43.942Z,13.50
2019-05-18T04:28:14.151Z,13.40
2019-05-18T04:30:43.476Z,13.40
2019-05-18T04:33:12.864Z,13.40
2019-05-18T04:35:42.223Z,13.40
2019-05-18T04:38:11.602Z,13.40
2019-05-18T04:40:41.008Z,13.50
2019-05-18T04:43:10.332Z,13.50
2019-05-18T04:45:39.805Z,13.50
2019-05-18T04:48:10.611Z,13.40
2019-05-18T04:50:39.948Z,13.50
2019-05-18T04:53:09.358Z,13.50
2019-05-18T04:55:38.699Z,13.50
2019-05-18T04:58:08.044Z,13.50
2019-05-18T05:00:37.440Z,13.50
2019-05-18T05:03:06.843Z,13.60
2019-05-18T05:05:36.215Z,13.60
2019-05-18T05:08:05.603Z,13.60
2019-05-18T05:10:34.976Z,13.60
2019-05-18T05:13:04.380Z,13.60
2019-05-18T05:15:35.071Z,13.60
2019-05-18T05:18:04.398Z,13.60
2019-05-18T05:20:33.785Z,13.60
2019-05-18T05:23:03.191Z,13.70
2019-05-18T05:25:32.528Z,13.80
2019-05-18T05:28:01.905Z,13.90
2019-05-18T05:30:31.332Z,13.80
2019-05-18T05:33:00.652Z,13.80
2019-05-18T05:35:30.000Z,13.80
2019-05-18T05:37:59.404Z,13.70
2019-05-18T05:40:28.743Z,13.80
2019-05-18T05:42:58.092Z,13.70
2019-05-18T05:45:27.494Z,13.80
2019-05-18T05:47:56.807Z,13.80
2019-05-18T05:50:35.304Z,13.90
2019-05-18T05:52:57.224Z,13.90
2019-05-18T05:55:26.559Z,13.90
2019-05-18T05:57:55.978Z,14.00
2019-05-18T06:00:25.323Z,14.10
2019-05-18T06:02:54.711Z,14.10
2019-05-18T06:05:24.092Z,14.20
2019-05-18T06:07:53.475Z,14.20
2019-05-18T06:10:22.862Z,14.30
2019-05-18T06:12:52.229Z,14.40
2019-05-18T06:15:21.560Z,14.50
2019-05-18T06:17:50.960Z,14.50
2019-05-18T06:20:20.288Z,14.70
2019-05-18T06:22:49.667Z,14.70
2019-05-18T06:25:19.149Z,14.80
2019-05-18T06:27:48.551Z,14.80
2019-05-18T06:30:17.924Z,14.90
2019-05-18T06:32:47.340Z,15.00
2019-05-18T06:35:16.733Z,15.00
2019-05-18T06:37:46.131Z,15.00
2019-05-18T06:40:15.636Z,15.10
2019-05-18T06:42:45.015Z,15.00
2019-05-18T06:45:14.905Z,15.00
2019-05-18T06:47:44.334Z,14.90
2019-05-18T06:50:15.316Z,14.80
2019-05-18T06:52:44.721Z,14.70
2019-05-18T06:55:14.139Z,14.80
2019-05-18T06:57:44.739Z,14.80
2019-05-18T07:00:15.820Z,15.00
2019-05-18T07:02:45.228Z,15.10
2019-05-18T07:05:14.566Z,15.20
2019-05-18T07:07:43.975Z,15.30
2019-05-18T07:10:13.328Z,15.30
2019-05-18T07:12:42.729Z,15.40
2019-05-18T07:15:12.610Z,15.30
2019-05-18T07:17:41.935Z,15.40
2019-05-18T07:20:11.435Z,15.40
2019-05-18T07:22:41.125Z,15.50
2019-05-18T07:25:10.727Z,15.60
2019-05-18T07:27:40.126Z,15.70
2019-05-18T07:30:09.935Z,15.80
2019-05-18T07:32:39.322Z,15.90
2019-05-18T07:35:08.778Z,15.80
2019-05-18T07:37:38.245Z,15.90
2019-05-18T07:40:08.054Z,16.00
2019-05-18T07:42:37.479Z,16.10
2019-05-18T07:45:07.595Z,16.10
2019-05-18T07:47:36.981Z,16.20
2019-05-18T07:50:06.767Z,16.30
2019-05-18T07:52:36.157Z,16.30
2019-05-18T07:55:06.925Z,16.40
2019-05-18T07:57:37.697Z,16.40
2019-05-18T08:00:07.128Z,16.30
2019-05-18T08:02:37.813Z,16.40
2019-05-18T08:05:08.636Z,16.40
2019-05-18T08:07:37.964Z,16.50
2019-05-18T08:10:08.866Z,16.60
2019-05-18T08:12:38.192Z,16.70
2019-05-18T08:15:08.949Z,16.80
2019-05-18T08:17:38.350Z,17.00
2019-05-18T08:20:07.689Z,17.00
2019-05-18T08:22:37.033Z,17.20
2019-05-18T08:25:07.128Z,17.30
2019-05-18T08:27:36.479Z,17.60
2019-05-18T08:30:09.172Z,17.70
2019-05-18T08:32:38.667Z,17.70
2019-05-18T08:35:08.964Z,17.90
2019-05-18T08:37:38.307Z,18.20
2019-05-18T08:40:08.201Z,18.70
2019-05-18T08:42:38.104Z,19.00
2019-05-18T08:45:09.151Z,18.90
2019-05-18T08:47:39.752Z,19.00
2019-05-18T08:50:10.317Z,19.40
2019-05-18T08:52:39.733Z,19.40
2019-05-18T08:55:09.243Z,19.40
2019-05-18T08:57:38.622Z,19.40
2019-05-18T09:00:08.708Z,19.40
2019-05-18T09:02:38.052Z,19.10
2019-05-18T09:05:07.580Z,19.20
2019-05-18T09:07:36.916Z,19.10
2019-05-18T09:10:07.509Z,19.00
2019-05-18T09:12:36.861Z,18.90
2019-05-18T09:15:06.658Z,19.00
2019-05-18T09:17:36.071Z,19.00
2019-05-18T09:20:08.332Z,19.30
2019-05-18T09:22:37.825Z,19.00
2019-05-18T09:25:07.403Z,19.00
2019-05-18T09:27:36.820Z,19.00
2019-05-18T09:30:10.155Z,18.90
2019-05-18T09:32:39.722Z,19.00
2019-05-18T09:35:09.676Z,19.10
2019-05-18T09:37:39.156Z,19.20
2019-05-18T09:40:09.195Z,19.00
2019-05-18T09:42:38.681Z,19.10
2019-05-18T09:45:09.680Z,19.00
2019-05-18T09:47:40.170Z,18.90
2019-05-18T09:50:10.055Z,18.80
2019-05-18T09:52:45.305Z,18.80
2019-05-18T09:55:10.590Z,18.80
2019-05-18T09:57:39.996Z,18.80
2019-05-18T10:00:10.693Z,19.10
2019-05-18T10:02:40.078Z,19.10
2019-05-18T10:05:10.469Z,19.20
2019-05-18T10:07:39.859Z,18.90
2019-05-18T10:10:09.456Z,19.00
2019-05-18T10:12:38.961Z,18.80
2019-05-18T10:15:08.553Z,19.00
2019-05-18T10:17:37.954Z,18.80
2019-05-18T10:20:08.773Z,18.80
2019-05-18T10:22:53.562Z,18.70
2019-05-18T10:25:12.009Z,18.70
2019-05-18T10:27:41.444Z,18.30
2019-05-18T10:30:12.384Z,18.30
2019-05-18T10:32:41.792Z,18.20
2019-05-18T10:35:11.236Z,18.30
2019-05-18T10:37:40.646Z,18.10
2019-05-18T10:40:10.503Z,18.00
2019-05-18T10:42:39.903Z,18.00
2019-05-18T10:45:09.784Z,18.10
2019-05-18T10:47:39.135Z,18.00
2019-05-18T10:50:08.644Z,18.00
2019-05-18T10:52:37.991Z,17.90
2019-05-18T10:55:08.185Z,18.00
2019-05-18T10:57:37.518Z,17.90
2019-05-18T11:00:08.635Z,17.80
2019-05-18T11:02:37.984Z,17.70
2019-05-18T11:05:07.359Z,17.80
2019-05-18T11:07:36.762Z,17.80
2019-05-18T11:10:09.811Z,17.80
2019-05-18T11:12:39.223Z,17.60
2019-05-18T11:15:09.339Z,17.60
2019-05-18T11:17:38.824Z,17.50
2019-05-18T11:20:08.823Z,17.40
2019-05-18T11:22:38.222Z,17.30
2019-05-18T11:25:08.123Z,17.20
2019-05-18T11:27:38.044Z,17.10
2019-05-18T11:30:09.500Z,17.10
2019-05-18T11:32:40.655Z,17.10
2019-05-18T11:35:10.555Z,16.90
2019-05-18T11:37:39.942Z,16.80
2019-05-18T11:40:10.360Z,16.50
2019-05-18T11:42:40.520Z,16.60
2019-05-18T11:45:11.276Z,16.50
2019-05-18T11:47:40.886Z,16.60
2019-05-18T11:50:11.076Z,16.50
2019-05-18T11:52:40.980Z,16.00
2019-05-18T11:55:10.784Z,15.50
2019-05-18T11:57:40.177Z,15.00
2019-05-18T12:00:12.891Z,14.80
2019-05-18T12:02:42.387Z,14.80
2019-05-18T12:05:12.275Z,14.60
2019-05-18T12:07:41.679Z,14.50
2019-05-18T12:10:11.469Z,14.50
2019-05-18T12:12:40.810Z,14.60
2019-05-18T12:15:10.705Z,14.60
2019-05-18T12:17:40.037Z,14.90
2019-05-18T12:20:09.955Z,15.00
2019-05-18T12:22:39.311Z,15.10
2019-05-18T12:25:09.120Z,15.30
2019-05-18T12:27:38.567Z,15.50
2019-05-18T12:30:09.001Z,15.50
2019-05-18T12:32:38.321Z,15.50
2019-05-18T12:35:09.211Z,15.40
2019-05-18T12:37:38.544Z,15.20
2019-05-18T12:40:08.372Z,15.20
2019-05-18T12:42:37.812Z,15.10
2019-05-18T12:45:08.897Z,15.10
2019-05-18T12:47:38.238Z,15.10
2019-05-18T12:50:07.830Z,15.20
2019-05-18T12:52:37.442Z,15.20
2019-05-18T12:55:07.151Z,15.30
2019-05-18T12:57:37.128Z,15.20
2019-05-18T13:00:07.635Z,15.20
2019-05-18T13:02:37.024Z,15.10
2019-05-18T13:05:06.632Z,15.10
2019-05-18T13:07:36.007Z,15.10
2019-05-18T13:10:06.883Z,15.10
2019-05-18T13:12:36.298Z,15.10
2019-05-18T13:15:07.176Z,15.10
2019-05-18T13:17:36.573Z,15.10
2019-05-18T13:20:07.279Z,15.10
2019-05-18T13:22:36.679Z,15.00
2019-05-18T13:25:06.475Z,15.00
2019-05-18T13:27:39.234Z,14.90
2019-05-18T13:30:07.761Z,15.00
2019-05-18T13:32:37.241Z,15.00
2019-05-18T13:35:06.985Z,15.10
2019-05-18T13:37:36.405Z,15.10
2019-05-18T13:40:06.849Z,15.10
2019-05-18T13:42:36.448Z,15.10
2019-05-18T13:45:06.699Z,15.20
2019-05-18T13:47:36.126Z,15.40
2019-05-18T13:50:06.226Z,15.60
2019-05-18T13:52:35.568Z,15.80
2019-05-18T13:55:06.426Z,16.00
2019-05-18T13:57:35.872Z,16.30
2019-05-18T14:00:07.829Z,16.50
2019-05-18T14:02:37.220Z,16.70
2019-05-18T14:05:06.835Z,16.80
2019-05-18T14:07:36.175Z,17.00
2019-05-18T14:10:06.786Z,17.20
2019-05-18T14:12:36.127Z,17.60
2019-05-18T14:15:07.231Z,17.80
2019-05-18T14:17:36.570Z,17.90
2019-05-18T14:20:06.176Z,17.80
2019-05-18T14:22:35.519Z,17.70
2019-05-18T14:25:18.877Z,17.50
2019-05-18T14:27:40.192Z,17.40
2019-05-18T14:30:10.102Z,17.30
2019-05-18T14:32:39.430Z,17.10
2019-05-18T14:35:08.946Z,17.10
2019-05-18T14:37:38.290Z,17.00
2019-05-18T14:40:09.136Z,17.10
2019-05-18T14:42:39.526Z,17.10
2019-05-18T14:45:09.226Z,17.10
2019-05-18T14:47:39.749Z,17.10
2019-05-18T14:50:10.357Z,17.10
2019-05-18T14:52:39.735Z,17.10
2019-05-18T14:55:09.137Z,17.20
2019-05-18T14:57:38.540Z,17.20
2019-05-18T15:00:09.348Z,17.30
2019-05-18T15:02:38.754Z,17.40
2019-05-18T15:05:08.499Z,17.30
2019-05-18T15:07:37.884Z,17.40
2019-05-18T15:10:08.646Z,17.50
2019-05-18T15:12:38.034Z,17.50
2019-05-18T15:15:08.858Z,17.60
2019-05-18T15:17:38.272Z,17.70
2019-05-18T15:20:09.214Z,17.50
2019-05-18T15:22:38.728Z,17.80
2019-05-18T15:25:08.503Z,17.90
2019-05-18T15:27:37.894Z,17.80
2019-05-18T15:30:07.693Z,17.90
2019-05-18T15:32:37.021Z,17.80
2019-05-18T15:35:09.108Z,17.70
2019-05-18T15:37:39.576Z,17.60
2019-05-18T15:40:09.087Z,17.60
2019-05-18T15:42:38.420Z,17.70
2019-05-18T15:45:08.747Z,17.80
2019-05-18T15:47:38.147Z,17.80
2019-05-18T15:50:07.887Z,17.90
2019-05-18T15:52:37.415Z,18.00
2019-05-18T15:55:08.331Z,17.90
2019-05-18T15:57:40.424Z,17.90
2019-05-18T16:00:10.676Z,17.90
2019-05-18T16:02:40.086Z,17.80
2019-05-18T16:05:09.511Z,17.70
2019-05-18T16:07:39.011Z,17.70
2019-05-18T16:10:08.803Z,17.60
2019-05-18T16:12:38.195Z,17.50
2019-05-18T16:15:08.697Z,17.40
2019-05-18T16:17:39.845Z,17.40
2019-05-18T16:20:09.726Z,17.40
2019-05-18T16:22:39.126Z,17.30
2019-05-18T16:25:08.623Z,17.30
2019-05-18T16:27:38.035Z,17.40
2019-05-18T16:30:08.112Z,17.50
2019-05-18T16:32:37.503Z,17.50
2019-05-18T16:35:10.096Z,17.50
2019-05-18T16:37:39.511Z,17.50
2019-05-18T16:40:09.104Z,17.40
2019-05-18T16:42:38.488Z,17.40
2019-05-18T16:45:08.665Z,17.40
2019-05-18T16:47:38.103Z,17.40
2019-05-18T16:50:08.990Z,17.40
2019-05-18T16:52:39.576Z,17.40
2019-05-18T16:55:09.089Z,17.30
2019-05-18T16:57:38.597Z,17.30
2019-05-18T17:00:09.577Z,17.10
2019-05-18T17:02:38.952Z,17.00
2019-05-18T17:05:08.745Z,16.90
2019-05-18T17:07:38.429Z,17.00
2019-05-18T17:10:08.304Z,16.90
2019-05-18T17:12:37.687Z,16.80
2019-05-18T17:15:07.988Z,16.90
2019-05-18T17:17:38.683Z,16.80
2019-05-18T17:20:08.593Z,16.70
2019-05-18T17:22:37.973Z,16.70
2019-05-18T17:25:07.496Z,16.50
2019-05-18T17:27:36.826Z,16.60
2019-05-18T17:30:06.719Z,16.50
2019-05-18T17:32:36.103Z,16.40
2019-05-18T17:35:06.446Z,16.50
2019-05-18T17:37:35.831Z,16.50
2019-05-18T17:40:06.420Z,16.40
2019-05-18T17:42:36.816Z,16.40
2019-05-18T17:45:07.666Z,16.20
2019-05-18T17:47:37.183Z,16.10
2019-05-18T17:50:09.221Z,16.10
2019-05-18T17:52:39.211Z,16.10
2019-05-18T17:55:09.900Z,16.10
2019-05-18T17:57:39.259Z,16.20
2019-05-18T18:00:09.754Z,16.10
2019-05-18T18:02:39.250Z,16.10
2019-05-18T18:05:08.599Z,16.20
2019-05-18T18:07:39.407Z,16.10
2019-05-18T18:10:09.354Z,16.00
2019-05-18T18:12:38.857Z,16.10
2019-05-18T18:15:08.890Z,16.00
2019-05-18T18:17:38.324Z,16.10
2019-05-18T18:20:07.834Z,15.90
2019-05-18T18:22:37.264Z,15.90
2019-05-18T18:25:07.258Z,15.90
2019-05-18T18:27:36.603Z,15.80
2019-05-18T18:30:07.719Z,15.60
2019-05-18T18:32:37.045Z,15.70
2019-05-18T18:35:06.630Z,15.60
2019-05-18T18:37:36.032Z,15.60
2019-05-18T18:40:06.150Z,15.60
2019-05-18T18:42:35.567Z,15.50
2019-05-18T18:45:06.432Z,15.50
2019-05-18T18:47:35.850Z,15.40
2019-05-18T18:50:07.369Z,15.40
2019-05-18T18:52:36.716Z,15.30
2019-05-18T18:55:07.096Z,15.20
2019-05-18T18:57:41.832Z,15.20
2019-05-18T19:00:09.198Z,15.10
2019-05-18T19:02:38.657Z,14.90
2019-05-18T19:05:08.167Z,14.70
2019-05-18T19:07:37.506Z,14.30
2019-05-18T19:10:07.322Z,14.20
2019-05-18T19:12:36.668Z,14.00
2019-05-18T19:15:06.864Z,14.00
2019-05-18T19:17:36.194Z,14.00
2019-05-18T19:20:06.978Z,14.00
2019-05-18T19:22:36.318Z,14.10
2019-05-18T19:25:05.917Z,14.00
2019-05-18T19:27:35.310Z,14.00
2019-05-18T19:30:09.882Z,14.10
2019-05-18T19:32:39.467Z,14.10
2019-05-18T19:35:08.915Z,14.10
2019-05-18T19:37:38.307Z,14.10
2019-05-18T19:40:07.792Z,14.20
2019-05-18T19:42:37.135Z,14.20
2019-05-18T19:45:07.047Z,14.30
2019-05-18T19:47:36.403Z,14.30
2019-05-18T19:50:07.250Z,14.30
2019-05-18T19:52:36.753Z,14.30
2019-05-18T19:55:06.530Z,14.30
2019-05-18T19:57:37.217Z,14.30
2019-05-18T20:00:08.076Z,14.30
2019-05-18T20:02:38.564Z,14.40
2019-05-18T20:05:09.376Z,14.30
2019-05-18T20:07:39.184Z,14.30
2019-05-18T20:10:08.991Z,14.30
2019-05-18T20:12:38.366Z,14.30
2019-05-18T20:15:09.496Z,14.30
2019-05-18T20:17:39.360Z,14.40
2019-05-18T20:20:10.178Z,14.40
2019-05-18T20:22:39.662Z,14.50
2019-05-18T20:25:09.143Z,14.50
2019-05-18T20:27:38.547Z,14.40
2019-05-18T20:30:08.081Z,14.40
2019-05-18T20:32:37.653Z,14.30
2019-05-18T20:35:07.017Z,14.30
2019-05-18T20:37:36.406Z,14.30
2019-05-18T20:40:06.418Z,14.30
2019-05-18T20:42:37.658Z,14.30
2019-05-18T20:45:07.116Z,14.20
2019-05-18T20:47:36.600Z,14.10
2019-05-18T20:50:06.702Z,14.00
2019-05-18T20:52:36.126Z,14.10
2019-05-18T20:55:05.705Z,14.10
2019-05-18T20:57:35.078Z,14.10
2019-05-18T21:00:05.310Z,14.10
2019-05-18T21:02:36.243Z,14.10
2019-05-18T21:05:05.793Z,14.10
2019-05-18T21:07:35.192Z,14.10
2019-05-18T21:10:06.081Z,14.10
2019-05-18T21:12:35.547Z,14.10
2019-05-18T21:15:08.623Z,14.10
2019-05-18T21:17:38.038Z,14.10
2019-05-18T21:20:09.020Z,14.00
2019-05-18T21:22:38.402Z,14.00
2019-05-18T21:25:07.785Z,14.00
2019-05-18T21:27:37.203Z,14.00
2019-05-18T21:30:07.453Z,14.10
2019-05-18T21:32:36.874Z,14.10
2019-05-18T21:35:07.231Z,14.10
2019-05-18T21:37:36.611Z,14.10
2019-05-18T21:40:06.130Z,14.10
2019-05-18T21:42:35.527Z,14.10
2019-05-18T21:45:06.336Z,14.10
2019-05-18T21:47:35.669Z,14.10
2019-05-18T21:50:06.183Z,14.10
2019-05-18T21:52:36.330Z,14.10
2019-05-18T21:55:06.646Z,14.20
2019-05-18T21:57:36.036Z,14.20
2019-05-18T22:00:06.728Z,14.10
2019-05-18T22:02:37.607Z,14.10
2019-05-18T22:05:07.235Z,14.10
2019-05-18T22:07:36.576Z,14.10
2019-05-18T22:10:06.680Z,14.10
2019-05-18T22:12:36.027Z,14.10
2019-05-18T22:15:06.812Z,14.00
2019-05-18T22:17:37.706Z,14.10
2019-05-18T22:20:07.218Z,14.10
2019-05-18T22:22:36.568Z,14.00
2019-05-18T22:25:05.962Z,14.00
2019-05-18T22:27:35.357Z,14.00
2019-05-18T22:30:05.453Z,14.00
2019-05-18T22:32:34.947Z,14.10
2019-05-18T22:35:05.252Z,14.10
2019-05-18T22:37:34.633Z,14.10
2019-05-18T22:40:05.534Z,14.10
2019-05-18T22:42:34.925Z,14.10
2019-05-18T22:45:04.620Z,14.10
2019-05-18T22:47:34.116Z,14.00
2019-05-18T22:50:04.407Z,14.00
2019-05-18T22:52:33.747Z,14.00
2019-05-18T22:55:03.632Z,14.10
2019-05-18T22:57:33.076Z,14.00
2019-05-18T23:00:02.412Z,14.00
2019-05-18T23:02:33.004Z,14.00
2019-05-18T23:05:02.335Z,14.00
2019-05-18T23:07:32.844Z,14.00
2019-05-18T23:10:02.320Z,14.00
2019-05-18T23:12:32.969Z,14.00
2019-05-18T23:15:02.318Z,14.00
2019-05-18T23:17:31.788Z,14.10
2019-05-18T23:20:01.136Z,14.30
2019-05-18T23:22:30.523Z,14.40
2019-05-18T23:25:00.063Z,14.50
2019-05-18T23:27:29.561Z,14.60
2019-05-18T23:29:58.975Z,14.70
2019-05-18T23:32:28.367Z,14.70
2019-05-18T23:34:57.744Z,14.80
2019-05-18T23:37:27.139Z,14.80
2019-05-18T23:39:56.483Z,14.70
2019-05-18T23:42:25.864Z,14.70
2019-05-18T23:44:56.306Z,14.60
2019-05-18T23:47:25.679Z,14.60
2019-05-18T23:49:55.027Z,14.60
2019-05-18T23:52:24.425Z,14.60
2019-05-18T23:54:53.767Z,14.60
2019-05-18T23:57:23.213Z,14.50
2019-05-18T23:59:52.700Z,14.60
